Troy, ID

7:47 PM PDT on July 29, 2016 (GMT -0700)
Lamb Road | | Change Station

Elev 2677 ft 46.72 °N, 116.77 °W | Updated 4 minutes ago

Clear
Clear
88.8 °F
Feels Like 86 °F
N
3.0
Wind Variable Wind from WNW

Today
High -- | Low -- °F
--% Chance of Precip.
Yesterday
High -- | Low -- °F
Precip. -- in
Pressure 29.80 in
Visibility 10.0 miles
Clouds Clear
Heat Index 86 °F
Dew Point 47 °F
Humidity 24%
Rainfall 0.60 in
Snow Depth Not available.
5:24 AM 8:21 PM
Waning Crescent, 17% visible
METAR KPUW 300153Z AUTO 30003KT 10SM CLR 33/08 A2986 RMK AO2 SLP089 T03280083
Pressure 29.80 in
Visibility 10.0 miles
Clouds Clear
Heat Index 86 °F
Dew Point 47 °F
Humidity 24%
Rainfall 0.60 in
Snow Depth Not available.
5:24 AM 8:21 PM
Waning Crescent, 17% visible
METAR KPUW 300153Z AUTO 30003KT 10SM CLR 33/08 A2986 RMK AO2 SLP089 T03280083

10-Day Weather Forecast

Almanac

Astronomy

Jul. 29, 2016 Rise Set
Actual Time
Civil Twilight
Nautical Twilight
Astronomical Twilight
Moon
Length of Visible Light
Length of Day
Tomorrow will be .
, % of the Moon is Illuminated

Today's Extremes

State Highs State Lows

Community

WunderPhotos

Upload Photos

1,928,491 photos uploaded!

WunderBlog® & News

Nearby

Air Quality

  Air Quality AQ Index Pollutant
Not available.

Snow Depth

Station Depth Elevation

Earthquake Activity

City Distance Mag. Time & Date
Minimum magnitude displayed is 2.5.

Coastal Water Temperatures

Place Temperature

Stations

Nearby Weather Stations

Station Location Temp. Windchill Dew Point Humidity Wind Precip. Elev Updated Type
                   

Watches & Warnings

There are currently no watches in effect.